createdAt,value
2018-11-02T00:00:58.555Z,8.67
2018-11-02T00:03:27.202Z,8.53
2018-11-02T00:05:55.839Z,7.17
2018-11-02T00:08:24.870Z,7.55
2018-11-02T00:10:53.687Z,8.53
2018-11-02T00:13:22.798Z,8.97
2018-11-02T00:15:51.324Z,8.53
2018-11-02T00:18:19.802Z,7.23
2018-11-02T00:20:48.428Z,6.63
2018-11-02T00:23:17.348Z,6.83
2018-11-02T00:25:46.161Z,6.50
2018-11-02T00:28:14.764Z,9.03
2018-11-02T00:30:43.178Z,7.63
2018-11-02T00:33:11.819Z,9.73
2018-11-02T00:35:40.296Z,7.10
2018-11-02T00:38:08.735Z,8.43
2018-11-02T00:40:37.769Z,7.00
2018-11-02T00:43:06.620Z,7.80
2018-11-02T00:45:35.399Z,7.10
2018-11-02T00:48:04.026Z,7.90
2018-11-02T00:50:32.631Z,6.73
2018-11-02T00:53:01.302Z,6.57
2018-11-02T00:55:30.003Z,7.90
2018-11-02T00:57:58.525Z,9.90
2018-11-02T01:00:27.182Z,6.83
2018-11-02T01:02:55.808Z,8.07
2018-11-02T01:05:24.403Z,8.80
2018-11-02T01:07:53.042Z,7.40
2018-11-02T01:10:21.607Z,7.53
2018-11-02T01:12:50.180Z,6.57
2018-11-02T01:15:18.794Z,9.53
2018-11-02T01:17:47.457Z,8.90
2018-11-02T01:20:15.960Z,9.53
2018-11-02T01:22:44.634Z,8.67
2018-11-02T01:25:13.097Z,7.33
2018-11-02T01:27:41.761Z,7.83
2018-11-02T01:30:10.293Z,12.57
2018-11-02T01:32:38.849Z,6.60
2018-11-02T01:35:08.823Z,6.70
2018-11-02T01:37:37.385Z,7.17
2018-11-02T01:40:06.969Z,6.97
2018-11-02T01:42:35.774Z,6.40
2018-11-02T01:45:04.497Z,7.07
2018-11-02T01:47:33.025Z,6.17
2018-11-02T01:50:01.675Z,9.10
2018-11-02T01:52:30.272Z,6.77
2018-11-02T01:54:58.965Z,6.83
2018-11-02T01:57:27.647Z,6.70
2018-11-02T01:59:56.454Z,7.15
2018-11-02T02:02:24.983Z,6.30
2018-11-02T02:04:53.518Z,6.60
2018-11-02T02:07:22.196Z,6.77
2018-11-02T02:09:50.881Z,8.35
2018-11-02T02:12:19.678Z,8.07
2018-11-02T02:14:48.333Z,6.17
2018-11-02T02:17:17.048Z,6.13
2018-11-02T02:19:45.870Z,6.83
2018-11-02T02:22:14.602Z,7.00
2018-11-02T02:24:43.174Z,6.47
2018-11-02T02:27:11.879Z,6.20
2018-11-02T02:29:40.349Z,6.33
2018-11-02T02:32:09.100Z,7.10
2018-11-02T02:34:37.541Z,6.20
2018-11-02T02:37:06.172Z,6.90
2018-11-02T02:39:34.678Z,6.23
2018-11-02T02:42:03.373Z,6.47
2018-11-02T02:44:32.829Z,6.07
2018-11-02T02:47:01.380Z,6.40
2018-11-02T02:49:30.026Z,6.47
2018-11-02T02:51:58.694Z,6.30
2018-11-02T02:54:27.511Z,6.40
2018-11-02T02:56:56.101Z,6.30
2018-11-02T02:59:24.613Z,5.70
2018-11-02T03:01:53.592Z,7.73
2018-11-02T03:04:22.021Z,6.62
2018-11-02T03:06:50.641Z,6.40
2018-11-02T03:09:19.243Z,6.23
2018-11-02T03:11:47.758Z,7.87
2018-11-02T03:14:16.330Z,7.13
2018-11-02T03:16:44.995Z,8.13
2018-11-02T03:19:14.027Z,6.53
2018-11-02T03:21:42.555Z,6.27
2018-11-02T03:24:11.147Z,6.40
2018-11-02T03:26:39.929Z,6.37
2018-11-02T03:29:08.589Z,6.80
2018-11-02T03:31:37.246Z,6.73
2018-11-02T03:34:06.055Z,6.10
2018-11-02T03:36:34.558Z,7.43
2018-11-02T03:39:03.275Z,10.13
2018-11-02T03:41:31.676Z,9.57
2018-11-02T03:44:00.416Z,10.67
2018-11-02T03:46:28.930Z,7.90
2018-11-02T03:48:57.398Z,8.20
2018-11-02T03:51:25.982Z,7.50
2018-11-02T03:53:54.975Z,7.50
2018-11-02T03:56:23.387Z,8.33
2018-11-02T03:58:51.872Z,7.50
2018-11-02T04:01:20.433Z,7.57
2018-11-02T04:03:48.896Z,6.93
2018-11-02T04:06:17.367Z,7.20
2018-11-02T04:08:46.115Z,7.80
2018-11-02T04:11:14.829Z,6.90
2018-11-02T04:13:43.504Z,7.07
2018-11-02T04:16:12.125Z,8.13
2018-11-02T04:18:40.630Z,8.53
2018-11-02T04:21:09.459Z,7.70
2018-11-02T04:23:38.092Z,8.73
2018-11-02T04:26:06.885Z,8.33
2018-11-02T04:28:35.261Z,7.80
2018-11-02T04:31:04.086Z,7.40
2018-11-02T04:33:32.615Z,8.40
2018-11-02T04:36:01.171Z,7.77
2018-11-02T04:38:29.597Z,8.57
2018-11-02T04:40:58.310Z,8.40
2018-11-02T04:43:26.808Z,7.33
2018-11-02T04:45:55.602Z,7.27
2018-11-02T04:48:24.645Z,8.40
2018-11-02T04:50:53.265Z,8.77
2018-11-02T04:53:21.769Z,9.47
2018-11-02T04:55:50.365Z,9.50
2018-11-02T04:58:18.780Z,10.30
2018-11-02T05:00:47.246Z,9.43
2018-11-02T05:03:15.905Z,13.35
2018-11-02T05:05:44.514Z,11.77
2018-11-02T05:08:13.026Z,7.40
2018-11-02T05:10:41.641Z,8.20
2018-11-02T05:13:10.287Z,9.13
2018-11-02T05:15:39.095Z,8.67
2018-11-02T05:18:07.839Z,12.70
2018-11-02T05:20:36.408Z,12.83
2018-11-02T05:23:05.425Z,8.63
2018-11-02T05:25:34.279Z,8.15
2018-11-02T05:28:02.774Z,8.30
2018-11-02T05:30:31.175Z,9.78
2018-11-02T05:32:59.781Z,8.50
2018-11-02T05:35:28.242Z,9.88
2018-11-02T05:37:57.011Z,8.83
2018-11-02T05:40:25.454Z,7.70
2018-11-02T05:42:54.190Z,6.90
2018-11-02T05:45:22.760Z,8.47
2018-11-02T05:47:51.475Z,8.27
2018-11-02T05:50:20.163Z,8.57
2018-11-02T05:52:48.624Z,8.00
2018-11-02T05:55:17.206Z,12.57
2018-11-02T05:57:45.919Z,17.62
2018-11-02T06:00:14.614Z,14.97
2018-11-02T06:02:43.244Z,9.83
2018-11-02T06:05:13.413Z,8.50
2018-11-02T06:07:42.371Z,9.18
2018-11-02T06:10:11.032Z,7.33
2018-11-02T06:12:40.304Z,7.73
2018-11-02T06:15:09.358Z,8.43
2018-11-02T06:17:38.080Z,7.27
2018-11-02T06:20:13.551Z,7.87
2018-11-02T06:22:55.968Z,8.07
2018-11-02T06:36:50.995Z,10.93
2018-11-02T06:39:20.468Z,9.30
2018-11-02T06:41:49.525Z,11.30
2018-11-02T06:44:18.691Z,10.43
2018-11-02T06:46:47.694Z,11.20
2018-11-02T06:49:17.202Z,8.73
2018-11-02T06:51:46.241Z,10.10
2018-11-02T06:54:15.797Z,23.07
2018-11-02T06:56:44.880Z,9.10
2018-11-02T06:59:14.266Z,11.97
2018-11-02T07:01:43.677Z,9.60
2018-11-02T07:04:12.628Z,12.43
2018-11-02T07:39:21.621Z,24.60
2018-11-02T07:41:50.315Z,19.47
2018-11-02T07:44:19.620Z,18.73
2018-11-02T07:46:48.593Z,17.27
2018-11-02T07:49:17.212Z,17.30
2018-11-02T07:51:45.917Z,14.20
2018-11-02T07:54:14.640Z,13.10
2018-11-02T07:56:43.373Z,13.93
2018-11-02T07:59:12.414Z,12.20
2018-11-02T08:01:41.336Z,13.70
2018-11-02T08:04:10.010Z,15.10
2018-11-02T08:06:38.597Z,14.10
2018-11-02T08:09:09.942Z,17.93
2018-11-02T08:11:39.263Z,18.93
2018-11-02T08:14:08.323Z,15.40
2018-11-02T08:16:38.496Z,15.20
2018-11-02T08:19:07.645Z,18.67
2018-11-02T08:21:36.476Z,24.50
2018-11-02T08:24:05.585Z,30.20
2018-11-02T08:26:34.445Z,27.00
2018-11-02T08:29:03.232Z,23.47
2018-11-02T08:31:31.938Z,33.10
2018-11-02T08:34:00.738Z,21.30
2018-11-02T08:36:29.269Z,20.23
2018-11-02T08:38:57.968Z,18.90
2018-11-02T08:41:26.735Z,20.32
2018-11-02T08:46:50.490Z,19.37
2018-11-02T08:49:19.315Z,19.70
2018-11-02T08:51:48.128Z,15.80
2018-11-02T08:54:16.947Z,18.63
2018-11-02T08:56:45.502Z,14.45
2018-11-02T08:59:14.196Z,16.27
2018-11-02T09:01:42.654Z,15.47
2018-11-02T09:04:11.529Z,14.67
2018-11-02T09:06:40.159Z,13.25
2018-11-02T09:09:10.167Z,12.97
2018-11-02T09:11:39.379Z,14.27
2018-11-02T09:14:08.462Z,10.77
2018-11-02T09:16:37.417Z,15.57
2018-11-02T09:19:06.297Z,13.90
2018-11-02T09:21:35.297Z,62.67
2018-11-02T09:24:03.964Z,16.30
2018-11-02T09:26:32.690Z,11.43
2018-11-02T09:29:01.568Z,14.07
2018-11-02T09:31:30.268Z,10.25
2018-11-02T09:33:58.871Z,12.90
2018-11-02T09:36:27.550Z,9.40
2018-11-02T09:38:56.952Z,13.50
2018-11-02T09:41:37.786Z,12.37
2018-11-02T09:44:11.646Z,8.60
2018-11-02T09:46:41.117Z,10.93
2018-11-02T09:49:10.649Z,11.43
2018-11-02T09:51:40.513Z,14.80
2018-11-02T09:54:09.790Z,9.37
2018-11-02T09:56:39.077Z,11.60
2018-11-02T09:59:08.379Z,9.63
2018-11-02T10:01:37.691Z,12.13
2018-11-02T10:04:06.836Z,10.40
2018-11-02T10:06:36.045Z,10.83
2018-11-02T10:09:06.726Z,11.03
2018-11-02T10:16:42.589Z,14.10
2018-11-02T10:19:12.465Z,9.93
2018-11-02T10:21:41.649Z,12.03
2018-11-02T10:24:10.570Z,11.93
2018-11-02T10:26:41.449Z,14.00
2018-11-02T10:29:13.201Z,13.13
2018-11-02T10:31:42.399Z,9.00
2018-11-02T10:34:13.787Z,10.53
2018-11-02T10:36:50.292Z,9.90
2018-11-02T10:39:31.542Z,10.97
2018-11-02T10:44:50.647Z,11.30
2018-11-02T10:47:20.883Z,9.30
2018-11-02T10:49:52.371Z,10.80
2018-11-02T10:52:22.243Z,9.77
2018-11-02T10:54:51.390Z,8.33
2018-11-02T10:57:23.787Z,12.73
2018-11-02T10:59:53.904Z,9.27
2018-11-02T11:02:39.212Z,9.07
2018-11-02T11:05:10.825Z,8.23
2018-11-02T11:07:40.429Z,10.70
2018-11-02T11:10:11.679Z,8.70
2018-11-02T11:12:41.178Z,8.30
2018-11-02T11:15:11.670Z,8.90
2018-11-02T11:17:45.523Z,6.87
2018-11-02T11:20:15.150Z,7.08
2018-11-02T11:25:30.467Z,7.83
2018-11-02T11:28:14.867Z,7.13
2018-11-02T11:30:46.133Z,8.00
2018-11-02T11:33:16.827Z,8.30
2018-11-02T11:35:47.923Z,10.50
2018-11-02T11:38:19.786Z,7.45
2018-11-02T11:43:31.558Z,7.83
2018-11-02T11:46:01.485Z,11.70
2018-11-02T11:48:32.582Z,7.93
2018-11-02T11:51:01.975Z,6.97
2018-11-02T11:53:31.287Z,7.47
2018-11-02T11:56:00.874Z,9.50
2018-11-02T11:58:30.533Z,9.43
2018-11-02T12:01:03.097Z,9.60
2018-11-02T12:03:37.325Z,8.70
2018-11-02T12:06:06.613Z,10.37
2018-11-02T12:08:38.950Z,13.67
2018-11-02T12:11:08.183Z,9.20
2018-11-02T12:13:37.863Z,9.63
2018-11-02T12:16:07.840Z,12.23
2018-11-02T12:18:38.125Z,10.40
2018-11-02T12:21:15.171Z,8.00
2018-11-02T12:23:44.893Z,9.57
2018-11-02T12:26:15.062Z,9.33
2018-11-02T12:28:45.671Z,17.93
2018-11-02T12:31:15.691Z,8.57
2018-11-02T12:33:56.357Z,10.83
2018-11-02T12:36:29.846Z,10.93
2018-11-02T12:41:49.638Z,9.97
2018-11-02T12:44:25.677Z,9.37
2018-11-02T12:51:24.138Z,13.33
2018-11-02T12:53:59.588Z,9.50
2018-11-02T12:56:29.393Z,10.80
2018-11-02T12:59:10.555Z,9.62
2018-11-02T13:01:43.802Z,12.97
2018-11-02T13:04:17.642Z,9.27
2018-11-02T13:06:49.315Z,10.17
2018-11-02T13:09:18.955Z,9.80
2018-11-02T13:11:57.682Z,8.65
2018-11-02T13:14:28.332Z,9.00
2018-11-02T13:17:00.364Z,8.78
2018-11-02T13:19:51.225Z,9.98
2018-11-02T13:30:02.278Z,6.10
2018-11-02T13:32:38.149Z,7.23
2018-11-02T13:35:25.435Z,8.07
2018-11-02T14:02:45.143Z,10.77
2018-11-02T14:05:16.880Z,11.70
2018-11-02T14:07:45.820Z,9.38
2018-11-02T14:10:15.144Z,9.73
2018-11-02T14:12:44.517Z,9.03
2018-11-02T14:15:15.169Z,10.00
2018-11-02T14:17:45.372Z,11.25
2018-11-02T14:20:15.289Z,10.00
2018-11-02T14:22:50.832Z,9.70
2018-11-02T14:25:20.077Z,10.83
2018-11-02T14:27:49.479Z,9.73
2018-11-02T14:30:20.347Z,10.50
2018-11-02T14:32:49.492Z,12.13
2018-11-02T14:35:19.997Z,11.10
2018-11-02T14:37:53.982Z,10.50
2018-11-02T14:40:23.287Z,10.57
2018-11-02T14:42:52.982Z,10.80
2018-11-02T14:45:22.715Z,13.72
2018-11-02T14:47:54.839Z,14.25
2018-11-02T14:50:24.280Z,11.90
2018-11-02T14:52:54.029Z,13.50
2018-11-02T14:55:23.368Z,10.63
2018-11-02T14:57:52.914Z,12.70
2018-11-02T15:00:22.133Z,13.27
2018-11-02T15:02:51.396Z,11.60
2018-11-02T15:05:20.676Z,13.60
2018-11-02T15:07:50.047Z,13.10
2018-11-02T15:10:19.345Z,10.90
2018-11-02T15:15:44.490Z,11.73
2018-11-02T15:18:15.617Z,14.70
2018-11-02T15:20:44.964Z,10.83
2018-11-02T15:23:13.799Z,14.00
2018-11-02T15:25:42.795Z,18.00
2018-11-02T15:28:11.683Z,19.00
2018-11-02T15:30:40.601Z,18.17
2018-11-02T15:33:09.397Z,14.57
2018-11-02T15:35:38.827Z,12.47
2018-11-02T15:38:07.871Z,9.63
2018-11-02T15:40:36.879Z,11.73
2018-11-02T15:43:07.040Z,10.23
2018-11-02T15:45:36.150Z,12.67
2018-11-02T15:48:05.359Z,12.80
2018-11-02T15:50:34.456Z,15.10
2018-11-02T15:53:03.370Z,14.73
2018-11-02T15:55:32.611Z,12.17
2018-11-02T15:58:01.333Z,12.80
2018-11-02T16:00:30.432Z,11.77
2018-11-02T16:02:59.185Z,14.60
2018-11-02T16:05:27.894Z,13.73
2018-11-02T16:07:56.391Z,14.10
2018-11-02T16:10:25.749Z,24.63
2018-11-02T16:12:54.883Z,21.23
2018-11-02T16:15:24.189Z,19.10
2018-11-02T16:17:53.190Z,21.13
2018-11-02T16:20:22.681Z,21.17
2018-11-02T16:22:51.288Z,19.62
2018-11-02T16:25:20.161Z,15.47
2018-11-02T16:27:49.657Z,17.53
2018-11-02T16:30:18.489Z,15.40
2018-11-02T16:32:47.503Z,16.62
2018-11-02T16:35:16.643Z,21.10
2018-11-02T16:37:45.661Z,20.47
2018-11-02T16:40:15.787Z,20.20
2018-11-02T16:42:45.459Z,21.40
2018-11-02T16:45:15.002Z,19.13
2018-11-02T16:47:44.710Z,22.20
2018-11-02T16:50:14.943Z,16.53
2018-11-02T16:52:44.657Z,14.67
2018-11-02T16:55:13.655Z,15.67
2018-11-02T16:57:42.776Z,18.00
2018-11-02T17:00:14.302Z,14.90
2018-11-02T17:02:43.726Z,11.57
2018-11-02T17:05:13.637Z,15.07
2018-11-02T17:07:43.330Z,12.10
2018-11-02T17:10:13.443Z,18.53
2018-11-02T17:12:43.118Z,31.10
2018-11-02T17:15:12.758Z,25.35
2018-11-02T17:17:42.903Z,20.80
2018-11-02T17:20:14.597Z,14.63
2018-11-02T17:22:43.667Z,16.20
2018-11-02T17:25:12.970Z,12.53
2018-11-02T17:27:41.953Z,12.60
2018-11-02T17:30:13.335Z,26.23
2018-11-02T17:32:42.332Z,48.00
2018-11-02T17:35:12.150Z,42.33
2018-11-02T17:37:40.904Z,26.93
2018-11-02T17:40:14.274Z,15.37
2018-11-02T17:42:43.730Z,12.27
2018-11-02T17:45:12.938Z,15.43
2018-11-02T17:47:42.517Z,19.73
2018-11-02T17:50:12.789Z,22.20
2018-11-02T17:52:41.917Z,27.37
2018-11-02T17:55:10.647Z,27.20
2018-11-02T17:57:39.592Z,23.97
2018-11-02T18:00:10.022Z,23.73
2018-11-02T18:02:39.759Z,25.30
2018-11-02T18:05:09.908Z,23.43
2018-11-02T18:07:38.993Z,24.63
2018-11-02T18:10:09.662Z,24.17
2018-11-02T18:12:38.930Z,20.53
2018-11-02T18:15:08.929Z,24.80
2018-11-02T18:17:38.087Z,25.07
2018-11-02T18:20:09.584Z,26.20
2018-11-02T18:22:38.177Z,20.80
2018-11-02T18:25:07.001Z,13.07
2018-11-02T18:27:35.988Z,27.57
2018-11-02T18:30:06.151Z,23.63
2018-11-02T18:32:34.867Z,20.03
2018-11-02T18:35:03.777Z,23.93
2018-11-02T18:37:32.751Z,17.40
2018-11-02T18:40:01.439Z,24.60
2018-11-02T18:42:30.185Z,23.30
2018-11-02T18:44:59.866Z,22.23
2018-11-02T18:47:34.156Z,24.57
2018-11-02T18:50:02.937Z,33.53
2018-11-02T18:52:31.834Z,26.73
2018-11-02T18:55:00.663Z,22.98
2018-11-02T18:57:29.549Z,20.00
2018-11-02T18:59:58.406Z,22.20
2018-11-02T19:02:27.123Z,20.67
2018-11-02T19:04:55.695Z,23.90
2018-11-02T19:07:24.953Z,21.47
2018-11-02T19:09:53.852Z,26.97
2018-11-02T19:12:22.822Z,25.03
2018-11-02T19:14:51.910Z,29.63
2018-11-02T19:17:21.024Z,19.40
2018-11-02T19:19:50.074Z,19.00
2018-11-02T19:22:27.661Z,19.80
2018-11-02T19:25:02.714Z,23.02
2018-11-02T19:30:35.153Z,37.20
2018-11-02T19:33:07.409Z,27.67
2018-11-02T19:35:40.503Z,23.47
2018-11-02T19:38:09.643Z,22.50
2018-11-02T19:40:38.722Z,25.10
2018-11-02T19:43:07.758Z,22.80
2018-11-02T19:45:37.144Z,27.93
2018-11-02T19:48:06.853Z,30.20
2018-11-02T19:50:35.725Z,30.60
2018-11-02T19:53:04.382Z,23.73
2018-11-02T19:55:33.280Z,20.13
2018-11-02T19:58:02.034Z,19.83
2018-11-02T20:00:30.712Z,21.40
2018-11-02T20:02:59.602Z,20.53
2018-11-02T20:05:28.489Z,19.10
2018-11-02T20:07:57.535Z,16.53
2018-11-02T20:10:26.439Z,21.17
2018-11-02T20:12:55.425Z,20.83
2018-11-02T20:15:24.389Z,17.80
2018-11-02T20:17:53.385Z,16.43
2018-11-02T20:20:22.323Z,21.17
2018-11-02T20:22:51.062Z,24.47
2018-11-02T20:25:19.667Z,18.77
2018-11-02T20:27:48.498Z,24.30
2018-11-02T20:30:19.954Z,29.33
2018-11-02T20:32:49.016Z,53.97
2018-11-02T20:35:17.898Z,38.17
2018-11-02T20:37:46.897Z,40.00
2018-11-02T20:40:17.418Z,34.50
2018-11-02T20:42:46.351Z,25.02
2018-11-02T20:45:15.683Z,24.70
2018-11-02T20:47:49.636Z,33.27
2018-11-02T20:50:18.417Z,31.20
2018-11-02T20:52:47.593Z,25.17
2018-11-02T20:55:16.773Z,21.03
2018-11-02T20:57:45.603Z,25.13
2018-11-02T21:00:22.275Z,24.40
2018-11-02T21:02:51.112Z,20.63
2018-11-02T21:05:21.293Z,20.87
2018-11-02T21:07:50.712Z,21.73
2018-11-02T21:10:20.444Z,21.73
2018-11-02T21:12:49.207Z,19.53
2018-11-02T21:15:21.598Z,20.03
2018-11-02T21:17:51.042Z,18.87
2018-11-02T21:20:20.920Z,19.57
2018-11-02T21:22:49.959Z,18.87
2018-11-02T21:25:18.649Z,19.50
2018-11-02T21:27:47.840Z,17.30
2018-11-02T21:30:18.972Z,18.57
2018-11-02T21:32:48.373Z,18.03
2018-11-02T21:35:17.723Z,19.12
2018-11-02T21:37:46.723Z,17.50
2018-11-02T21:40:16.793Z,17.87
2018-11-02T21:42:45.932Z,17.10
2018-11-02T21:45:15.842Z,18.73
2018-11-02T21:47:45.088Z,16.30
2018-11-02T21:50:14.326Z,19.60
2018-11-02T21:52:43.402Z,23.27
2018-11-02T21:55:12.203Z,21.53
2018-11-02T21:57:40.995Z,22.27
2018-11-02T22:00:11.977Z,19.70
2018-11-02T22:02:41.069Z,18.70
2018-11-02T22:05:11.306Z,20.40
2018-11-02T22:07:40.097Z,19.37
2018-11-02T22:10:10.141Z,17.47
2018-11-02T22:12:39.410Z,21.37
2018-11-02T22:15:09.178Z,17.77
2018-11-02T22:17:38.352Z,19.35
2018-11-02T22:20:08.673Z,17.00
2018-11-02T22:22:37.583Z,18.47
2018-11-02T22:25:07.288Z,27.90
2018-11-02T22:27:36.187Z,18.50
2018-11-02T22:30:05.605Z,18.00
2018-11-02T22:32:34.205Z,17.67
2018-11-02T22:35:03.003Z,22.20
2018-11-02T22:37:31.551Z,20.60
2018-11-02T22:40:00.212Z,18.57
2018-11-02T22:42:29.167Z,19.00
2018-11-02T22:44:57.797Z,19.77
2018-11-02T22:47:26.435Z,22.10
2018-11-02T22:49:55.091Z,19.55
2018-11-02T22:52:23.989Z,20.70
2018-11-02T22:54:52.728Z,20.90
2018-11-02T22:57:21.496Z,25.17
2018-11-02T22:59:50.092Z,22.37
2018-11-02T23:02:19.236Z,22.50
2018-11-02T23:04:48.017Z,25.50
2018-11-02T23:07:16.750Z,21.10
2018-11-02T23:09:45.835Z,21.50
2018-11-02T23:12:14.598Z,21.77
2018-11-02T23:14:43.285Z,23.60
2018-11-02T23:17:11.988Z,23.60
2018-11-02T23:19:40.699Z,20.93
2018-11-02T23:22:09.778Z,22.93
2018-11-02T23:24:38.353Z,22.00
2018-11-02T23:27:07.122Z,25.70
2018-11-02T23:29:35.931Z,23.47
2018-11-02T23:32:04.451Z,23.70
2018-11-02T23:34:33.065Z,22.87
2018-11-02T23:37:01.845Z,24.60
2018-11-02T23:39:30.457Z,22.30
2018-11-02T23:41:59.173Z,25.00
2018-11-02T23:44:28.017Z,26.30
2018-11-02T23:46:56.704Z,25.23
2018-11-02T23:49:25.341Z,24.60
2018-11-02T23:51:54.347Z,23.20
2018-11-02T23:54:23.141Z,24.55
2018-11-02T23:56:52.067Z,27.63
2018-11-02T23:59:20.860Z,26.50
